Time;durP1;ratioP1;P1;durP2;ratioP2;P2;SDS_P1;SDS_P2;PMS_P1;PMS_P2;Temp;Humidity;BMP_temperature;BMP_pressure;BME280_temperature;BME280_humidity;BME280_pressure;Samples;Min_cycle;Max_cycle;Signal;HPM_P1;HPM_P2
2023/03/05 00:01:56;;;;;;;;;;;;;;;-142.75;100.00;78688.94;4991980;28;19917;-68
2023/03/05 00:04:22;;;;;;;;;;;;;;;-142.75;100.00;78728.31;4991865;28;19924;-67
2023/03/05 00:06:47;;;;;;;;;;;;;;;-142.75;100.00;78712.56;4992997;28;20295;-67
2023/03/05 00:09:13;;;;;;;;;;;;;;;-142.75;100.00;78712.56;4991007;28;19922;-67
2023/03/05 00:11:38;;;;;;;;;;;;;;;-142.75;100.00;78738.16;4973821;28;19914;-67
2023/03/05 00:14:04;;;;;;;;;;;;;;;-142.75;100.00;78730.28;4993575;28;19928;-67
2023/03/05 00:16:30;;;;;;;;;;;;;;;-142.75;100.00;78726.34;4991368;28;20383;-68
2023/03/05 00:18:56;;;;;;;;;;;;;;;-142.75;100.00;78706.66;4991420;28;19968;-67
2023/03/05 00:21:23;;;;;;;;;;;;;;;-142.75;100.00;78710.59;4991726;28;19984;-67
2023/03/05 00:23:49;;;;;;;;;;;;;;;-142.75;100.00;78696.81;4987974;28;20383;-67
2023/03/05 00:26:15;;;;;;;;;;;;;;;-142.75;100.00;78724.38;4990462;28;19913;-66
2023/03/05 00:28:40;;;;;;;;;;;;;;;-142.75;100.00;78716.50;4991221;28;19963;-67
2023/03/05 00:31:05;;;;;;;;;;;;;;;-142.75;100.00;78728.31;4990580;28;19953;-65
2023/03/05 00:33:31;;;;;;;;;;;;;;;-142.75;100.00;78732.25;4991346;28;20008;-66
2023/03/05 00:35:56;;;;;;;;;;;;;;;-142.75;100.00;78746.03;4991676;28;19913;-66
2023/03/05 00:38:21;;;;;;;;;;;;;;;-142.75;100.00;78750.00;4991449;28;19921;-66
2023/03/05 00:40:49;;;;;;;;;;;;;;;-142.75;100.00;78748.03;4991122;28;19933;-66
2023/03/05 00:43:14;;;;;;;;;;;;;;;-142.75;100.00;78742.09;4992406;28;19913;-66
2023/03/05 00:45:39;;;;;;;;;;;;;;;-142.75;100.00;78753.94;4973372;28;20402;-70
2023/03/05 00:48:04;;;;;;;;;;;;;;;-142.75;100.00;78765.75;4991650;28;19913;-66
2023/03/05 00:50:30;;;;;;;;;;;;;;;-142.75;100.00;78757.88;4991491;28;19917;-66
2023/03/05 00:52:55;;;;;;;;;;;;;;;-142.75;100.00;78753.94;4973392;28;19918;-64
2023/03/05 00:55:20;;;;;;;;;;;;;;;-142.75;100.00;78765.75;4974886;28;19918;-66
2023/03/05 00:57:45;;;;;;;;;;;;;;;-142.75;100.00;78738.16;4991630;28;19917;-65
2023/03/05 01:00:11;;;;;;;;;;;;;;;-142.75;100.00;78722.41;4990592;28;20357;-65
2023/03/05 01:02:37;;;;;;;;;;;;;;;-142.75;100.00;78720.44;4991168;28;19936;-65
2023/03/05 01:05:02;;;;;;;;;;;;;;;-142.75;100.00;78724.38;4991630;28;19913;-65
2023/03/05 01:07:27;;;;;;;;;;;;;;;-142.75;100.00;78724.38;4977615;28;19920;-64
2023/03/05 01:09:53;;;;;;;;;;;;;;;-142.75;100.00;78716.50;4991687;28;19918;-64
2023/03/05 01:12:18;;;;;;;;;;;;;;;-142.75;100.00;78726.34;4991490;28;19937;-66
2023/03/05 01:14:43;;;;;;;;;;;;;;;-142.75;100.00;78720.44;4991628;28;19968;-66
2023/03/05 01:17:08;;;;;;;;;;;;;;;-142.75;100.00;78720.44;4991690;28;19917;-67
2023/03/05 01:19:33;;;;;;;;;;;;;;;-142.75;100.00;78710.59;4990992;28;19971;-66
2023/03/05 01:21:59;;;;;;;;;;;;;;;-142.75;100.00;78696.81;4991625;28;19933;-66
2023/03/05 01:24:24;;;;;;;;;;;;;;;-142.75;100.00;78688.94;4991159;28;19921;-65
2023/03/05 01:26:50;;;;;;;;;;;;;;;-142.75;100.00;78686.97;4991379;28;19914;-68
2023/03/05 01:29:15;;;;;;;;;;;;;;;-142.75;100.00;78700.75;4973134;28;19914;-67
2023/03/05 01:31:40;;;;;;;;;;;;;;;-142.75;100.00;78681.06;4990647;28;19917;-67
2023/03/05 01:34:05;;;;;;;;;;;;;;;-142.75;100.00;78649.53;4991376;28;19953;-67
2023/03/05 01:36:31;;;;;;;;;;;;;;;-142.75;100.00;78665.28;4975856;28;19949;-67
2023/03/05 01:38:56;;;;;;;;;;;;;;;-142.75;100.00;78649.53;4991338;28;20008;-67
2023/03/05 01:41:21;;;;;;;;;;;;;;;-142.75;100.00;78653.47;4991353;28;20598;-65
2023/03/05 01:43:47;;;;;;;;;;;;;;;-142.75;100.00;78643.63;4991452;28;20379;-67
2023/03/05 01:46:24;;;;;;;;;;;;;;;-142.75;100.00;78633.78;4998075;28;19914;-66
2023/03/05 01:48:53;;;;;;;;;;;;;;;-142.75;100.00;78631.81;4991356;28;20001;-66
2023/03/05 01:51:20;;;;;;;;;;;;;;;-142.75;100.00;78625.91;4991317;28;19913;-66
2023/03/05 01:53:45;;;;;;;;;;;;;;;-142.75;100.00;78625.91;4991501;28;19929;-68
2023/03/05 01:56:10;;;;;;;;;;;;;;;-142.75;100.00;78608.19;4975266;28;19922;-66
2023/03/05 01:58:38;;;;;;;;;;;;;;;-142.75;100.00;78600.31;4980687;28;19968;-66
2023/03/05 02:01:04;;;;;;;;;;;;;;;-142.75;100.00;78606.22;4991184;28;20054;-67
2023/03/05 02:03:30;;;;;;;;;;;;;;;-142.75;100.00;78584.56;4991218;28;19973;-67
2023/03/05 02:05:56;;;;;;;;;;;;;;;-142.75;100.00;78586.53;4991398;28;19968;-67
2023/03/05 02:08:21;;;;;;;;;;;;;;;-142.75;100.00;78570.75;4991296;28;19913;-66
2023/03/05 02:10:46;;;;;;;;;;;;;;;-142.75;100.00;78570.75;4990986;28;19913;-66
2023/03/05 02:13:21;;;;;;;;;;;;;;;-142.75;100.00;78574.69;4991290;28;19914;-67
2023/03/05 02:15:48;;;;;;;;;;;;;;;-142.75;100.00;78576.66;4991320;28;19918;-67
2023/03/05 02:18:13;;;;;;;;;;;;;;;-142.75;100.00;78551.06;4991125;28;19964;-66
2023/03/05 02:21:05;;;;;;;;;;;;;;;-142.75;100.00;78558.94;4989602;28;20035;-67
2023/03/05 02:23:32;;;;;;;;;;;;;;;-142.75;100.00;78555.00;4987012;28;19957;-67
2023/03/05 02:25:58;;;;;;;;;;;;;;;-142.75;100.00;78560.91;4985651;28;19913;-66
2023/03/05 02:28:26;;;;;;;;;;;;;;;-142.75;100.00;78555.00;4991110;28;20383;-67
2023/03/05 02:30:51;;;;;;;;;;;;;;;-142.75;100.00;78549.09;4991387;28;19917;-66
2023/03/05 02:33:17;;;;;;;;;;;;;;;-142.75;100.00;78527.44;4994637;28;19914;-67
2023/03/05 02:35:43;;;;;;;;;;;;;;;-142.75;100.00;78521.53;4994626;28;20374;-67
2023/03/05 02:38:08;;;;;;;;;;;;;;;-142.75;100.00;78570.75;4994425;28;19968;-67
2023/03/05 02:40:34;;;;;;;;;;;;;;;-142.75;100.00;78568.78;4996952;28;19917;-67
2023/03/05 02:42:59;;;;;;;;;;;;;;;-142.75;100.00;78556.97;4994419;28;20354;-67
2023/03/05 02:45:24;;;;;;;;;;;;;;;-142.75;100.00;78558.94;4993079;28;19941;-68
2023/03/05 02:47:49;;;;;;;;;;;;;;;-142.75;100.00;78566.81;4994380;28;19920;-66
2023/03/05 02:50:14;;;;;;;;;;;;;;;-142.75;100.00;78549.09;4976623;28;19921;-66
2023/03/05 02:52:40;;;;;;;;;;;;;;;-142.75;100.00;78551.06;4994128;28;19917;-65
2023/03/05 02:55:05;;;;;;;;;;;;;;;-142.75;100.00;78560.91;4994186;28;20338;-69
2023/03/05 02:57:30;;;;;;;;;;;;;;;-142.75;100.00;78556.97;4994121;28;19993;-69
2023/03/05 02:59:56;;;;;;;;;;;;;;;-142.75;100.00;78547.13;4993949;28;19913;-66
2023/03/05 03:02:21;;;;;;;;;;;;;;;-142.75;100.00;78547.13;4993797;28;20394;-67
2023/03/05 03:04:46;;;;;;;;;;;;;;;-142.75;100.00;78551.06;4976503;28;19913;-67
2023/03/05 03:07:12;;;;;;;;;;;;;;;-142.75;100.00;78560.91;4993762;28;19968;-66
2023/03/05 03:09:37;;;;;;;;;;;;;;;-142.75;100.00;78562.88;4993830;28;19920;-67
2023/03/05 03:12:03;;;;;;;;;;;;;;;-142.75;100.00;78560.91;4993609;28;19914;-67
2023/03/05 03:14:37;;;;;;;;;;;;;;;-142.75;100.00;78553.03;4981713;28;19964;-67
2023/03/05 03:17:03;;;;;;;;;;;;;;;-142.75;100.00;78570.75;4983549;28;19913;-67
2023/03/05 03:19:28;;;;;;;;;;;;;;;-142.75;100.00;78570.75;4993574;28;19921;-67
2023/03/05 03:21:53;;;;;;;;;;;;;;;-142.75;100.00;78570.75;4993583;28;19918;-66
2023/03/05 03:24:19;;;;;;;;;;;;;;;-142.75;100.00;78555.00;4993759;28;20001;-65
2023/03/05 03:26:45;;;;;;;;;;;;;;;-142.75;100.00;78537.28;4993781;28;19967;-66
2023/03/05 03:29:10;;;;;;;;;;;;;;;-142.75;100.00;78523.50;4975790;28;19977;-67
2023/03/05 03:31:35;;;;;;;;;;;;;;;-142.75;100.00;78541.22;5006048;23;20680;-66
2023/03/05 03:34:01;;;;;;;;;;;;;;;-142.75;100.00;78521.53;4934716;29;20033;-66
2023/03/05 03:36:26;;;;;;;;;;;;;;;-142.75;100.00;78519.56;4949579;29;19922;-66
2023/03/05 03:38:51;;;;;;;;;;;;;;;-142.75;100.00;78523.50;4936048;29;19946;-66
2023/03/05 03:41:17;;;;;;;;;;;;;;;-142.75;100.00;78517.59;4936534;29;19914;-66
2023/03/05 03:43:43;;;;;;;;;;;;;;;-142.75;100.00;78511.69;4936472;29;19914;-66
2023/03/05 03:46:08;;;;;;;;;;;;;;;-142.75;100.00;78495.94;4936182;29;19974;-66
2023/03/05 03:48:34;;;;;;;;;;;;;;;-142.75;100.00;78499.88;4936016;29;19922;-66
2023/03/05 03:51:02;;;;;;;;;;;;;;;-142.75;100.00;78493.97;4935951;29;19925;-66
2023/03/05 03:53:27;;;;;;;;;;;;;;;-142.75;100.00;78491.97;4947557;29;20360;-66
2023/03/05 03:55:56;;;;;;;;;;;;;;;-142.75;100.00;78474.25;4937549;29;19960;-66
2023/03/05 03:58:22;;;;;;;;;;;;;;;-142.75;100.00;78458.50;4954703;29;19918;-66
2023/03/05 04:00:47;;;;;;;;;;;;;;;-142.75;100.00;78468.34;4955068;29;20257;-66
2023/03/05 04:03:12;;;;;;;;;;;;;;;-142.75;100.00;78476.22;4955481;28;19914;-66
2023/03/05 04:05:37;;;;;;;;;;;;;;;-142.75;100.00;78460.47;4955173;29;19922;-66
2023/03/05 04:08:02;;;;;;;;;;;;;;;-142.75;100.00;78456.53;4946180;29;19922;-66
2023/03/05 04:10:28;;;;;;;;;;;;;;;-142.75;100.00;78446.69;4935690;29;19930;-66
2023/03/05 04:12:53;;;;;;;;;;;;;;;-142.75;100.00;78456.53;4936080;29;19922;-66
2023/03/05 04:15:18;;;;;;;;;;;;;;;-142.75;100.00;78442.75;4935530;29;19988;-66
2023/03/05 04:17:44;;;;;;;;;;;;;;;-142.75;100.00;78430.94;4935540;29;19914;-66
2023/03/05 04:20:09;;;;;;;;;;;;;;;-142.75;100.00;78438.81;4935245;29;19919;-66
2023/03/05 04:22:35;;;;;;;;;;;;;;;-142.75;100.00;78438.81;4934989;29;19915;-66
2023/03/05 04:25:05;;;;;;;;;;;;;;;-142.75;100.00;78448.66;4935274;29;19914;-66
2023/03/05 04:27:30;;;;;;;;;;;;;;;-142.75;100.00;78452.59;4934919;29;19914;-66
2023/03/05 04:29:55;;;;;;;;;;;;;;;-142.75;100.00;78466.38;4934839;29;19929;-66
2023/03/05 04:32:24;;;;;;;;;;;;;;;-142.75;100.00;78446.69;4934425;29;19954;-66
2023/03/05 04:34:50;;;;;;;;;;;;;;;-142.75;100.00;78446.69;4934723;29;20388;-66
2023/03/05 04:37:15;;;;;;;;;;;;;;;-142.75;100.00;78440.78;4933669;29;19914;-66
2023/03/05 04:39:40;;;;;;;;;;;;;;;-142.75;100.00;78440.78;4934370;29;19925;-66
2023/03/05 04:42:05;;;;;;;;;;;;;;;-142.75;100.00;78434.88;4934396;29;19922;-66
2023/03/05 04:44:31;;;;;;;;;;;;;;;-142.75;100.00;78430.94;4950206;29;19921;-66
2023/03/05 04:46:56;;;;;;;;;;;;;;;-142.75;100.00;78430.94;4953499;29;19914;-66
2023/03/05 04:49:21;;;;;;;;;;;;;;;-142.75;100.00;78432.91;4953469;29;20033;-66
2023/03/05 04:51:46;;;;;;;;;;;;;;;-142.75;100.00;78454.56;4938736;29;19915;-66
2023/03/05 04:54:11;;;;;;;;;;;;;;;-142.75;100.00;78460.47;4948571;28;19941;-66
2023/03/05 04:56:37;;;;;;;;;;;;;;;-142.75;100.00;78456.53;4934352;29;20303;-66
2023/03/05 04:59:02;;;;;;;;;;;;;;;-142.75;100.00;78440.78;4934138;29;20385;-66
2023/03/05 05:01:27;;;;;;;;;;;;;;;-142.75;100.00;78464.41;4934245;29;20406;-66
2023/03/05 05:03:52;;;;;;;;;;;;;;;-142.75;100.00;78476.22;4934323;29;19914;-66
2023/03/05 05:06:18;;;;;;;;;;;;;;;-142.75;100.00;78476.22;4934239;29;20273;-66
2023/03/05 05:08:43;;;;;;;;;;;;;;;-142.75;100.00;78499.88;4952700;29;19954;-66
2023/03/05 05:11:11;;;;;;;;;;;;;;;-142.75;100.00;78497.91;4935807;29;19921;-66
2023/03/05 05:13:36;;;;;;;;;;;;;;;-142.75;100.00;78495.94;4936014;29;19922;-66
2023/03/05 05:16:04;;;;;;;;;;;;;;;-142.75;100.00;78493.97;4941688;29;19919;-66
2023/03/05 05:18:29;;;;;;;;;;;;;;;-142.75;100.00;78480.16;4952809;29;19922;-66
2023/03/05 05:20:55;;;;;;;;;;;;;;;-142.75;100.00;78472.28;4952940;29;19914;-66
2023/03/05 05:23:20;;;;;;;;;;;;;;;-142.75;100.00;78490.00;4953044;28;19915;-66
2023/03/05 05:25:45;;;;;;;;;;;;;;;-142.75;100.00;78497.91;4953236;29;19915;-66
2023/03/05 05:28:11;;;;;;;;;;;;;;;-142.75;100.00;78474.25;4953389;29;20296;-66
2023/03/05 05:30:36;;;;;;;;;;;;;;;-142.75;100.00;78464.41;4943067;29;19965;-66
2023/03/05 05:33:02;;;;;;;;;;;;;;;-142.75;100.00;78470.31;4933874;29;19973;-66
2023/03/05 05:35:27;;;;;;;;;;;;;;;-142.75;100.00;78482.13;4934010;29;19921;-66
2023/03/05 05:37:52;;;;;;;;;;;;;;;-142.75;100.00;78484.09;4933945;29;19915;-66
2023/03/05 05:40:17;;;;;;;;;;;;;;;-142.75;100.00;78458.50;4932483;29;19982;-66
2023/03/05 05:42:43;;;;;;;;;;;;;;;-142.75;100.00;78495.94;4933834;29;19915;-66
2023/03/05 05:45:09;;;;;;;;;;;;;;;-142.75;100.00;78503.81;4948436;29;19966;-66
2023/03/05 05:47:34;;;;;;;;;;;;;;;-142.75;100.00;78517.59;4933723;29;19921;-66
2023/03/05 05:49:59;;;;;;;;;;;;;;;-142.75;100.00;78499.88;4933774;29;20005;-66
2023/03/05 05:52:25;;;;;;;;;;;;;;;-142.75;100.00;78503.81;4933485;29;19914;-66
2023/03/05 05:54:50;;;;;;;;;;;;;;;-142.75;100.00;78505.78;4933881;29;20292;-66
2023/03/05 05:57:15;;;;;;;;;;;;;;;-142.75;100.00;78476.22;4933710;29;20392;-66
2023/03/05 05:59:40;;;;;;;;;;;;;;;-142.75;100.00;78509.72;4948435;29;20400;-66
2023/03/05 06:02:10;;;;;;;;;;;;;;;-142.75;100.00;78486.06;4933746;29;20352;-66
2023/03/05 06:04:35;;;;;;;;;;;;;;;-142.75;100.00;78497.91;4933827;29;20053;-66
2023/03/05 06:07:02;;;;;;;;;;;;;;;-142.75;100.00;78491.97;4936326;29;20017;-66
2023/03/05 06:09:27;;;;;;;;;;;;;;;-142.75;100.00;78460.47;4937345;29;19914;-66
2023/03/05 06:11:52;;;;;;;;;;;;;;;-142.75;100.00;78452.59;4937012;29;20296;-66
2023/03/05 06:14:17;;;;;;;;;;;;;;;-142.75;100.00;78444.72;4937360;29;19914;-66
2023/03/05 06:16:43;;;;;;;;;;;;;;;-142.75;100.00;78448.66;4937211;29;19970;-66
2023/03/05 06:19:12;;;;;;;;;;;;;;;-142.75;100.00;78470.31;4935809;29;19974;-66
2023/03/05 06:21:37;;;;;;;;;;;;;;;-142.75;100.00;78464.41;4937004;29;20307;-66
2023/03/05 06:24:03;;;;;;;;;;;;;;;-142.75;100.00;78450.63;4953892;29;19921;-66
2023/03/05 06:26:28;;;;;;;;;;;;;;;-142.75;100.00;78472.28;4939056;29;19938;-66
2023/03/05 06:28:54;;;;;;;;;;;;;;;-142.75;100.00;78448.66;4938103;29;20001;-65
2023/03/05 06:31:20;;;;;;;;;;;;;;;-142.75;100.00;78458.50;4935353;29;20005;-66
2023/03/05 06:33:46;;;;;;;;;;;;;;;-142.75;100.00;78462.44;4936907;29;20005;-66
2023/03/05 06:36:13;;;;;;;;;;;;;;;-142.75;100.00;78476.22;4936810;29;20422;-66
2023/03/05 06:38:38;;;;;;;;;;;;;;;-142.75;100.00;78464.41;4935522;29;19922;-66
2023/03/05 06:41:05;;;;;;;;;;;;;;;-142.75;100.00;78468.34;4954339;29;19918;-66
2023/03/05 06:43:32;;;;;;;;;;;;;;;-142.75;100.00;78456.53;4955804;28;19931;-66
2023/03/05 06:46:07;;;;;;;;;;;;;;;-142.75;100.00;78486.06;4955702;29;20001;-66
2023/03/05 06:48:33;;;;;;;;;;;;;;;-142.75;100.00;78452.59;4955769;29;20012;-66
2023/03/05 06:50:58;;;;;;;;;;;;;;;-142.75;100.00;78436.84;4938118;29;20009;-65
2023/03/05 06:53:24;;;;;;;;;;;;;;;-142.75;100.00;78427.00;4955641;28;19984;-66
2023/03/05 06:55:49;;;;;;;;;;;;;;;-142.75;100.00;78427.00;4955557;29;19926;-66
2023/03/05 06:58:14;;;;;;;;;;;;;;;-142.75;100.00;78407.31;4955745;29;19922;-65
2023/03/05 07:00:40;;;;;;;;;;;;;;;-142.75;100.00;78405.34;4955320;29;20422;-66
2023/03/05 07:03:05;;;;;;;;;;;;;;;-142.75;100.00;78389.56;4955396;28;19993;-66
2023/03/05 07:05:30;;;;;;;;;;;;;;;-142.75;100.00;78377.75;4955447;29;19914;-66
2023/03/05 07:07:56;;;;;;;;;;;;;;;-142.75;100.00;78377.75;4955361;29;19914;-66
2023/03/05 07:10:21;;;;;;;;;;;;;;;-142.75;100.00;78373.81;4938004;29;19918;-65
2023/03/05 07:12:46;;;;;;;;;;;;;;;-142.75;100.00;78375.78;4938002;29;19922;-66
2023/03/05 07:15:11;;;;;;;;;;;;;;;-142.75;100.00;78344.28;4955166;29;19918;-66
2023/03/05 07:17:36;;;;;;;;;;;;;;;-142.75;100.00;78358.06;4954845;28;20001;-66
2023/03/05 07:20:03;;;;;;;;;;;;;;;-142.75;100.00;78346.25;4954895;29;19922;-65
2023/03/05 07:22:28;;;;;;;;;;;;;;;-142.75;100.00;78340.34;4955083;28;20299;-66
2023/03/05 07:24:53;;;;;;;;;;;;;;;-142.75;100.00;78340.34;4955230;29;19914;-66
2023/03/05 07:27:18;;;;;;;;;;;;;;;-142.75;100.00;78338.38;4955177;29;20398;-66
2023/03/05 07:29:44;;;;;;;;;;;;;;;-142.75;100.00;78336.41;4955100;29;19942;-66
2023/03/05 07:32:09;;;;;;;;;;;;;;;-142.75;100.00;78318.69;4937571;29;20427;-66
2023/03/05 07:34:35;;;;;;;;;;;;;;;-142.75;100.00;78299.00;4937881;29;20009;-66
2023/03/05 07:37:01;;;;;;;;;;;;;;;-142.75;100.00;78312.78;4955033;29;19914;-66
2023/03/05 07:39:26;;;;;;;;;;;;;;;-142.75;100.00;78291.09;4954777;29;20403;-66
2023/03/05 07:41:51;;;;;;;;;;;;;;;-142.75;100.00;78273.38;4954762;28;19918;-66
2023/03/05 07:44:17;;;;;;;;;;;;;;;-142.75;100.00;78237.94;4955170;29;19915;-66
2023/03/05 07:46:43;;;;;;;;;;;;;;;-142.75;100.00;78241.88;4955071;29;19926;-66
2023/03/05 07:49:08;;;;;;;;;;;;;;;-142.75;100.00;78239.91;4954805;29;19914;-66
2023/03/05 07:51:33;;;;;;;;;;;;;;;-142.75;100.00;78232.03;4947078;29;20013;-66
2023/03/05 07:53:58;;;;;;;;;;;;;;;-142.75;100.00;78235.97;4936308;29;20013;-66
2023/03/05 07:56:30;;;;;;;;;;;;;;;-142.75;100.00;78218.25;4936421;29;19914;-66
2023/03/05 07:58:55;;;;;;;;;;;;;;;-142.75;100.00;78279.28;4936285;29;19969;-66
2023/03/05 08:01:21;;;;;;;;;;;;;;;-142.75;100.00;78287.16;4950618;28;19957;-66
2023/03/05 08:03:46;;;;;;;;;;;;;;;-142.75;100.00;78308.84;4937642;29;20375;-66
2023/03/05 08:06:11;;;;;;;;;;;;;;;-142.75;100.00;78314.75;4937366;29;20598;-66
2023/03/05 08:08:37;;;;;;;;;;;;;;;-142.75;100.00;78302.94;4954473;29;19919;-66
2023/03/05 08:11:06;;;;;;;;;;;;;;;-142.75;100.00;78320.66;4954082;29;19914;-66
2023/03/05 08:13:31;;;;;;;;;;;;;;;-142.75;100.00;78300.97;4937370;29;20343;-66
2023/03/05 08:15:57;;;;;;;;;;;;;;;-142.75;100.00;78275.34;4937091;29;19953;-66
2023/03/05 08:18:22;;;;;;;;;;;;;;;-142.75;100.00;78263.53;4937255;29;19945;-66
2023/03/05 08:20:47;;;;;;;;;;;;;;;-142.75;100.00;78245.81;4954255;29;19918;-66
2023/03/05 08:23:12;;;;;;;;;;;;;;;-142.75;100.00;78220.22;4937261;29;19953;-66
2023/03/05 08:25:37;;;;;;;;;;;;;;;-142.75;100.00;78196.59;4954417;29;20017;-66
2023/03/05 08:28:03;;;;;;;;;;;;;;;-142.75;100.00;78192.66;4943831;29;19922;-66
2023/03/05 08:30:28;;;;;;;;;;;;;;;-142.75;100.00;78172.94;4935525;29;19915;-66
2023/03/05 08:32:53;;;;;;;;;;;;;;;-142.75;100.00;78172.94;4950083;28;20348;-66
2023/03/05 08:35:19;;;;;;;;;;;;;;;-142.75;100.00;78196.59;4936115;29;20336;-66
2023/03/05 08:37:44;;;;;;;;;;;;;;;-142.75;100.00;78210.38;4950210;29;19950;-66
2023/03/05 08:40:10;;;;;;;;;;;;;;;-142.75;100.00;78212.34;4936188;29;20262;-66
2023/03/05 08:42:35;;;;;;;;;;;;;;;-142.75;100.00;78172.94;4935914;29;20410;-66
2023/03/05 08:45:00;;;;;;;;;;;;;;;-142.75;100.00;78169.00;4945313;29;19993;-66
2023/03/05 08:47:26;;;;;;;;;;;;;;;-142.75;100.00;78143.41;4954589;29;19921;-66
2023/03/05 08:49:56;;;;;;;;;;;;;;;-142.75;100.00;78121.75;4953817;29;20403;-65
2023/03/05 08:52:21;;;;;;;;;;;;;;;-142.75;100.00;78106.00;4935729;29;19986;-66
2023/03/05 08:54:46;;;;;;;;;;;;;;;-142.75;100.00;78076.47;4932038;29;20392;-66
2023/03/05 08:57:12;;;;;;;;;;;;;;;-142.75;100.00;78050.84;4935119;29;19919;-66
2023/03/05 08:59:37;;;;;;;;;;;;;;;-142.75;100.00;78035.09;4934587;29;19918;-66
2023/03/05 09:02:02;;;;;;;;;;;;;;;-142.75;100.00;78019.34;4952918;28;19914;-66
2023/03/05 09:04:27;;;;;;;;;;;;;;;-142.75;100.00;78011.47;4933379;29;19929;-66
2023/03/05 09:06:52;;;;;;;;;;;;;;;-142.75;100.00;77999.66;4941992;29;19954;-66
2023/03/05 09:09:20;;;;;;;;;;;;;;;-142.75;100.00;77995.72;4942106;29;20001;-66
2023/03/05 09:11:45;;;;;;;;;;;;;;;-142.75;100.00;78003.59;4947163;28;19914;-66
2023/03/05 09:14:10;;;;;;;;;;;;;;;-142.75;100.00;78041.00;4937739;29;19914;-66
2023/03/05 09:16:37;;;;;;;;;;;;;;;-142.75;100.00;78023.28;4934447;29;20006;-67
2023/03/05 09:19:02;;;;;;;;;;;;;;;-142.75;100.00;78027.22;4935756;29;20017;-66
2023/03/05 09:21:27;;;;;;;;;;;;;;;-142.75;100.00;78023.28;4939438;29;20017;-66
2023/03/05 09:23:58;;;;;;;;;;;;;;;-142.75;100.00;78019.34;4935896;29;19922;-66
2023/03/05 09:26:23;;;;;;;;;;;;;;;-142.75;100.00;78033.13;4936163;29;20300;-66
2023/03/05 09:28:48;;;;;;;;;;;;;;;-142.75;100.00;78050.84;4941491;29;19914;-66
2023/03/05 09:31:14;;;;;;;;;;;;;;;-142.75;100.00;78052.81;4953126;28;20387;-66
2023/03/05 09:33:39;;;;;;;;;;;;;;;-142.75;100.00;78027.22;4951997;23;19949;-67
2023/03/05 09:36:15;;;;;;;;;;;;;;;-142.75;100.00;78039.03;4946952;29;19926;-66
2023/03/05 09:38:40;;;;;;;;;;;;;;;-142.75;100.00;78060.72;4933622;29;19969;-67
2023/03/05 09:41:25;;;;;;;;;;;;;;;-142.75;100.00;78035.09;4951003;28;19918;-64
2023/03/05 09:44:09;;;;;;;;;;;;;;;-142.75;100.00;78086.31;4931172;29;19918;-66
2023/03/05 09:46:35;;;;;;;;;;;;;;;-142.75;100.00;78129.63;4956545;29;19922;-65
2023/03/05 09:49:12;;;;;;;;;;;;;;;-142.75;100.00;78133.56;4956608;29;19918;-67
2023/03/05 09:51:40;;;;;;;;;;;;;;;-142.75;100.00;78125.69;4955643;29;19915;-67
2023/03/05 09:54:11;;;;;;;;;;;;;;;-142.75;100.00;78117.81;4935881;28;20392;-66
2023/03/05 09:56:41;;;;;;;;;;;;;;;-142.75;100.00;78119.78;4938906;29;19921;-66
2023/03/05 09:59:06;;;;;;;;;;;;;;;-142.75;100.00;78117.81;4939265;29;20388;-68
2023/03/05 10:01:37;;;;;;;;;;;;;;;-142.75;100.00;78129.63;4951807;29;19921;-66
2023/03/05 10:04:02;;;;;;;;;;;;;;;-142.75;100.00;78139.47;4951769;28;19915;-69
2023/03/05 10:06:29;;;;;;;;;;;;;;;-142.75;100.00;78147.34;4937267;29;19922;-67
2023/03/05 10:09:07;;;;;;;;;;;;;;;-142.75;100.00;78129.63;4938865;29;19922;-64
2023/03/05 10:11:41;;;;;;;;;;;;;;;-142.75;100.00;78111.91;4951213;29;19922;-66
2023/03/05 10:14:12;;;;;;;;;;;;;;;-142.75;100.00;78100.09;4937163;29;19915;-66
2023/03/05 10:16:50;;;;;;;;;;;;;;;-142.75;100.00;78113.88;4943916;29;20360;-69
2023/03/05 10:19:34;;;;;;;;;;;;;;;-142.75;100.00;78098.13;4951568;29;20400;-66
2023/03/05 10:22:18;;;;;;;;;;;;;;;-142.75;100.00;78070.56;4947472;28;19914;-66
2023/03/05 10:24:43;;;;;;;;;;;;;;;-142.75;100.00;78066.63;4942767;29;19997;-66
2023/03/05 10:27:16;;;;;;;;;;;;;;;-142.75;100.00;78066.63;4954613;29;20323;-67
2023/03/05 10:30:04;;;;;;;;;;;;;;;-142.75;100.00;78031.16;4955724;29;20380;-68
2023/03/05 10:32:39;;;;;;;;;;;;;;;-142.75;100.00;78031.16;4948471;28;19914;-66
2023/03/05 10:35:13;;;;;;;;;;;;;;;-142.75;100.00;78003.59;4955719;29;20277;-67
2023/03/05 10:37:53;;;;;;;;;;;;;;;-142.75;100.00;77970.13;4955822;29;19918;-66
2023/03/05 10:40:28;;;;;;;;;;;;;;;-142.75;100.00;77944.53;4955458;29;19918;-69
2023/03/05 10:42:57;;;;;;;;;;;;;;;-142.75;100.00;77920.91;4955602;28;19970;-67
2023/03/05 10:45:28;;;;;;;;;;;;;;;-142.75;100.00;77926.81;4955374;29;19960;-62
2023/03/05 10:48:00;;;;;;;;;;;;;;;-142.75;100.00;77926.81;4951279;29;19921;-67
2023/03/05 10:50:26;;;;;;;;;;;;;;;-142.75;100.00;77928.78;4935095;29;19969;-66
2023/03/05 10:53:05;;;;;;;;;;;;;;;-142.75;100.00;77926.81;4937577;29;19932;-69
2023/03/05 10:55:30;;;;;;;;;;;;;;;-142.75;100.00;77922.88;4942723;29;19919;-67
2023/03/05 10:57:56;;;;;;;;;;;;;;;-142.75;100.00;77981.94;4937570;29;20005;-66
2023/03/05 11:00:22;;;;;;;;;;;;;;;-142.75;100.00;78027.22;4936871;29;19919;-67
2023/03/05 11:02:56;;;;;;;;;;;;;;;-142.75;100.00;78035.09;4937777;29;19942;-67
2023/03/05 11:05:39;;;;;;;;;;;;;;;-142.75;100.00;78037.06;4938636;29;20403;-67
2023/03/05 11:08:34;;;;;;;;;;;;;;;-142.75;100.00;77976.03;4948903;29;19967;-67
2023/03/05 11:11:08;;;;;;;;;;;;;;;-142.75;100.00;77909.06;4931169;29;19981;-67
2023/03/05 11:13:35;;;;;;;;;;;;;;;-142.75;100.00;77887.41;4937199;29;20410;-68
2023/03/05 11:16:02;;;;;;;;;;;;;;;-142.75;100.00;77838.19;4944499;29;20300;-68
2023/03/05 11:18:33;;;;;;;;;;;;;;;-142.75;100.00;77796.84;4941110;29;19914;-68
2023/03/05 11:21:08;;;;;;;;;;;;;;;-142.75;100.00;77751.56;4940131;29;19926;-68
2023/03/05 11:23:34;;;;;;;;;;;;;;;-142.75;100.00;77718.06;4940967;29;19914;-68
2023/03/05 11:26:00;;;;;;;;;;;;;;;-142.75;100.00;77659.00;4940720;29;19922;-67
2023/03/05 11:28:34;;;;;;;;;;;;;;;-142.75;100.00;77686.56;4940621;29;19914;-65
2023/03/05 11:31:02;;;;;;;;;;;;;;;-142.75;100.00;77688.53;4941660;29;19915;-65
2023/03/05 11:33:28;;;;;;;;;;;;;;;-142.75;100.00;77649.16;4941914;28;19918;-64
2023/03/05 11:36:08;;;;;;;;;;;;;;;-142.75;100.00;77692.47;4933916;29;20448;-66
2023/03/05 11:38:42;;;;;;;;;;;;;;;-142.75;100.00;77731.88;4940700;29;19915;-67
2023/03/05 11:41:08;;;;;;;;;;;;;;;-142.75;100.00;77763.38;4935875;29;19922;-66
2023/03/05 11:43:36;;;;;;;;;;;;;;;-142.75;100.00;77747.63;4936651;29;20289;-67
2023/03/05 11:46:02;;;;;;;;;;;;;;;-142.75;100.00;77741.72;4944036;29;19946;-66
2023/03/05 11:48:30;;;;;;;;;;;;;;;-142.75;100.00;77759.44;4939374;29;19961;-66
2023/03/05 11:51:00;;;;;;;;;;;;;;;-142.75;100.00;77781.09;4945677;29;20411;-65
2023/03/05 11:53:29;;;;;;;;;;;;;;;-142.75;100.00;77763.38;4937139;28;19914;-66
2023/03/05 11:55:58;;;;;;;;;;;;;;;-142.75;100.00;77771.25;4936077;29;20372;-68
2023/03/05 11:58:30;;;;;;;;;;;;;;;-142.75;100.00;77723.97;4936639;29;19915;-67
2023/03/05 12:00:55;;;;;;;;;;;;;;;-142.75;100.00;77775.19;4949468;29;19954;-66
2023/03/05 12:03:27;;;;;;;;;;;;;;;-142.75;100.00;77743.69;4936557;28;20426;-67
2023/03/05 12:05:55;;;;;;;;;;;;;;;-142.75;100.00;77737.78;4938838;29;19922;-69
2023/03/05 12:08:25;;;;;;;;;;;;;;;-142.75;100.00;77712.16;4933272;29;20384;-66
2023/03/05 12:10:51;;;;;;;;;;;;;;;-142.75;100.00;77716.09;4949460;28;19919;-66
2023/03/05 12:13:19;;;;;;;;;;;;;;;-142.75;100.00;77729.88;4933528;28;20444;-67
2023/03/05 12:16:09;;;;;;;;;;;;;;;-142.75;100.00;77745.66;4949433;28;19915;-67
2023/03/05 12:18:51;;;;;;;;;;;;;;;-142.75;100.00;77743.69;4934623;29;20293;-67